Lehman Caves, Nevada
Current Conditions -  °F | °C
As of 7:53 PM on Wednesday 17 Dec 2014 (Local Time) from KELY Reporting Station
Broken Clouds Broken Clouds  
Wind Chill: 20°   Ceiling: 6000
Heat Index: 27°   Visibility: 10mi
Dew Point: 22°   Wind: 6mph
Humidity: 81%   Direction: 120°ESE
Pressure: 30.04"   Gusts: NA
Location:  39.1253°N, 114.292°W
Report Text: KELY 180353Z AUTO 12005KT 10SM BKN060 M03/M06 A3004 RMK AO2 SLP186 T10281056
Loading
Personal Weather Stations






























Interactive Weather Map New forecast layout! Learn more

10-Day Weather Forecast

Advertisements
Track Severe Weather on mobile